Home > Products > Valid Products > TAF

000
FTUS43 KIWX 152300
TAFFWA
TAF
KFWA 152339Z 1600/1624 35004KT 3SM -RA BR SCT008 OVC015
      TEMPO 1600/1604 1SM RA BR OVC008
     FM160400 01004KT 6SM BR SCT004 OVC008
      TEMPO 1608/1612 2SM BR OVC004
     FM161300 35005KT P6SM SCT008 BKN015
     FM161500 33006KT P6SM SCT035=



000
FTUS43 KIWX 151700
TAFFWA
TAF
KFWA 151730Z 1518/1618 22006KT P6SM -SHRA OVC060
     FM152300 30008KT 6SM -RA OVC025
      TEMPO 1601/1604 4SM -RA BR OVC015
     FM160700 35003KT 3SM BR SCT020
     FM161400 33005KT P6SM SCT035=



000
FTUS43 KIWX 151400 AAA
TAFFWA
TAF AMD
KFWA 151436Z 1515/1612 22006KT P6SM -SHRA OVC060
      TEMPO 1515/1517 6SM -TSRA OVC050CB
     FM152100 30008KT 5SM -RA OVC020
      TEMPO 1523/1603 3SM -RA BR OVC010
     FM160800 35003KT 6SM BR SCT020=



000
FTUS43 KIWX 151100
TAFFWA
TAF
KFWA 151130Z 1512/1612 VRB03KT P6SM BKN120
     FM151500 22008KT P6SM BKN060
     FM152000 23010KT P6SM -RA OVC040
     FM152300 30008KT 5SM -RA OVC020
      TEMPO 1523/1603 3SM -RA BR OVC010
     FM160800 35003KT 6SM BR SCT020=



000
FTUS43 KIWX 150500
TAFFWA
TAF
KFWA 150535Z 1506/1606 22003KT P6SM SCT150
     FM151500 22008KT P6SM BKN060
     FM152000 23010KT P6SM -RA OVC040
     FM152300 30008KT P6SM OVC020
      TEMPO 1523/1603 3SM -RA BR OVC010
     FM160500 35003KT 6SM BR SCT015=



000
FTUS43 KIWX 142300 CCA
TAFFWA
TAF COR
KFWA 142343Z 1500/1524 22003KT P6SM SCT150
     FM151500 22008KT P6SM BKN060
     FM152000 23010KT P6SM -RA OVC040
     FM152300 30008KT P6SM OVC020=



000
FTUS43 KIWX 142300
TAFFWA
TAF
KFWA 142337Z 1500/1524 22003KT P6SM SCT150
     FM151500 22008KT P6SM BKN060
     FM152000 23010KT P6SM -RA OVC030=



000
FTUS43 KIWX 141700
TAFFWA
TAF
KFWA 141736Z 1418/1518 20008KT P6SM BKN040
     FM150000 VRB03KT P6SM SCT250
     FM151600 22007KT P6SM BKN060=



000
FTUS43 KIWX 141100
TAFFWA
TAF
KFWA 141130Z 1412/1512 VRB03KT P6SM BKN045
     FM141500 23006KT P6SM SCT040
     FM150000 VRB03KT P6SM SCT250=



000
FTUS43 KIWX 140900 AAA
TAFFWA
TAF AMD
KFWA 140933Z 1410/1506 00000KT P6SM BKN045
     FM141400 23006KT P6SM SCT040
     FM150000 VRB03KT P6SM FEW250=



000
FTUS43 KIWX 140500
TAFFWA
TAF
KFWA 140537Z 1406/1506 00000KT 6SM BR SKC
      TEMPO 1408/1412 2SM BR
     FM141400 23006KT P6SM SCT040
     FM150000 VRB03KT P6SM FEW250=



000
FTUS43 KIWX 132300 RRA
TAFFWA
TAF
KFWA 132339Z 1400/1424 33005KT P6SM SCT050
     FM140200 00000KT P6SM SKC
      TEMPO 1409/1413 3SM BR
     FM141400 23006KT P6SM SCT040=



000
FTUS43 KIWX 131700
TAFFWA
TAF
KFWA 131720Z 1318/1418 32010G20KT P6SM SCT030 BKN045
     FM132000 32010KT P6SM SCT035
     FM140000 00000KT P6SM SKC
      TEMPO 1409/1413 4SM BR
     FM141300 VRB05KT P6SM SKC=



000
FTUS43 KIWX 131500 AAA
TAFFWA
TAF AMD
KFWA 131537Z 1316/1412 30009KT P6SM SCT025 BKN040
     FM131800 34011KT P6SM BKN035
     FM140000 35003KT P6SM FEW035
     FM140600 00000KT 6SM BR SKC=



000
FTUS43 KIWX 131100
TAFFWA
TAF
KFWA 131128Z 1312/1412 30009KT P6SM SCT012 BKN018
      TEMPO 1312/1313 6SM -DZ BR BKN012
     FM131300 33012KT P6SM BKN025
     FM131600 34011KT P6SM BKN035
     FM140000 35003KT P6SM FEW035
     FM140600 00000KT 6SM BR SKC=



000
FTUS43 KIWX 130800 AAB
TAFFWA
TAF AMD
KFWA 130859Z 1309/1406 30010KT P6SM BKN009
      TEMPO 1309/1310 6SM -RA BR SCT009 BKN040
     FM131100 32006KT 6SM BR OVC015
     FM131500 34011KT P6SM BKN035
     FM140000 35003KT P6SM FEW035=



000
FTUS43 KIWX 130600 AAA
TAFFWA
TAF AMD
KFWA 130629Z 1306/1406 31010KT 6SM -RA BR SCT007 OVC015
      TEMPO 1306/1308 3SM -RA BR OVC007
     FM130800 31007KT 5SM -RA BR OVC010
     FM131100 32006KT 6SM BR OVC015
     FM131500 34011KT P6SM BKN035
     FM140000 35003KT P6SM FEW035=



000
FTUS43 KIWX 130500
TAFFWA
TAF
KFWA 130531Z 1306/1406 31006KT P6SM OVC025
      TEMPO 1308/1311 4SM -RA BR OVC015
     FM131500 34011KT P6SM BKN035
     FM140000 35003KT P6SM FEW035=



    US Dept of Commerce
    National Oceanic and Atmospheric Administration
    National Weather Service
    1325 East West Highway
    Silver Spring, MD 20910
    Page Author: NWS Internet Services Team
Disclaimer
Information Quality
Credits
Glossary
Privacy Policy
Freedom of Information Act (FOIA)
About Us
Career Opportunities